Terminal Aerodrome Forecast
Issued by NWS

Current Version | Previous Version | Text Only | Print | Product List | Glossary Off
Versions: 1 2 3 4 5 6 7 8 9 10 11 12 13 14 15 16

000
FTUS41 KPBZ 171729
TAFMGW
TAF
KMGW 171729Z 1718/1818 VRB03KT P6SM BKN100
     FM180000 18005KT P6SM VCTS BKN035CB
     FM180500 22005KT P6SM -SHRA OVC035
     FM181100 22006KT 5SM BR VCSH BKN020
     FM181600 23011G19KT P6SM BKN040=

USA.gov is the U.S. government's official web portal to all federal, state and local government web resources and services.